EFW62T LIMF-EGKK
Flight info
| Callsign | EFW62T |
|---|---|
| Flight time | 1h 24m |
| Altitude | 36000 |
| Route | KUKEV1X KUKEV DCT MOLUS DCT IBODI DCT GOTED DCT TRO DCT CLM DCT KOPOR DCT KESAX DCT KUNAV KUNAV1G |
| Aircraft | A320/M-SDE3FGIJ1KRWXY/S |
Departure
| Time | 2026-05-08 08:38 |
|---|---|
| Airport | Turin Airport (LIMF) |
Arrival
| Time | 2026-05-08 10:02 |
|---|---|
| Airport | London Gatwick Airport (EGKK) |
| Time | Latitude | Longitude | Altitude | Speed | Heading |
|---|---|---|---|---|---|
| 2026-05-08 08:20 | 45.19321 | 7.64512 | 995 ft | 0 kts | 257° |
| 2026-05-08 08:29 | 45.19322 | 7.64518 | 994 ft | 2 kts | 257° |
| 2026-05-08 08:29 | 45.19325 | 7.64535 | 993 ft | 3 kts | 259° |
| 2026-05-08 08:30 | 45.19329 | 7.64572 | 987 ft | 3 kts | 262° |
| 2026-05-08 08:30 | 45.19331 | 7.64591 | 986 ft | 3 kts | 263° |
| 2026-05-08 08:30 | 45.19337 | 7.64644 | 991 ft | 3 kts | 244° |
| 2026-05-08 08:31 | 45.19348 | 7.64665 | 993 ft | 3 kts | 210° |
| 2026-05-08 08:31 | 45.19364 | 7.64675 | 988 ft | 2 kts | 184° |
| 2026-05-08 08:31 | 45.19372 | 7.64675 | 989 ft | 0 kts | 182° |
| 2026-05-08 08:34 | 45.19363 | 7.64675 | 987 ft | 2 kts | 182° |
| 2026-05-08 08:34 | 45.19338 | 7.64674 | 986 ft | 5 kts | 181° |
| 2026-05-08 08:35 | 45.19285 | 7.64671 | 986 ft | 10 kts | 182° |
| 2026-05-08 08:35 | 45.19207 | 7.64666 | 992 ft | 13 kts | 182° |
| 2026-05-08 08:35 | 45.19108 | 7.64659 | 989 ft | 16 kts | 182° |
| 2026-05-08 08:35 | 45.18989 | 7.64651 | 988 ft | 18 kts | 183° |
| 2026-05-08 08:36 | 45.18853 | 7.64637 | 985 ft | 21 kts | 183° |
| 2026-05-08 08:36 | 45.18711 | 7.64631 | 985 ft | 18 kts | 180° |
| 2026-05-08 08:36 | 45.18620 | 7.64721 | 984 ft | 17 kts | 110° |
| 2026-05-08 08:36 | 45.18678 | 7.64866 | 982 ft | 17 kts | 22° |
| 2026-05-08 08:37 | 45.18731 | 7.64878 | 980 ft | 3 kts | 2° |
| 2026-05-08 08:37 | 45.18888 | 7.64887 | 981 ft | 54 kts | 2° |
| 2026-05-08 08:37 | 45.19484 | 7.64923 | 988 ft | 114 kts | 2° |
| 2026-05-08 08:37 | 45.20438 | 7.64979 | 987 ft | 157 kts | 1° |
| 2026-05-08 08:38 | 45.21519 | 7.65018 | 1513 ft | 153 kts | 0° |
| 2026-05-08 08:38 | 45.22586 | 7.65045 | 2081 ft | 154 kts | 0° |
| 2026-05-08 08:38 | 45.23708 | 7.65093 | 2427 ft | 170 kts | 2° |
| 2026-05-08 08:38 | 45.24962 | 7.65180 | 2678 ft | 189 kts | 2° |
| 2026-05-08 08:39 | 45.26276 | 7.65485 | 3104 ft | 196 kts | 26° |
| 2026-05-08 08:39 | 45.27202 | 7.66948 | 3455 ft | 215 kts | 70° |
| 2026-05-08 08:39 | 45.27237 | 7.69152 | 3785 ft | 238 kts | 105° |
| 2026-05-08 08:39 | 45.26774 | 7.71462 | 4529 ft | 246 kts | 106° |
| 2026-05-08 08:40 | 45.26289 | 7.73817 | 5432 ft | 250 kts | 106° |
| 2026-05-08 08:40 | 45.25800 | 7.76200 | 6321 ft | 253 kts | 106° |
| 2026-05-08 08:40 | 45.25310 | 7.78620 | 7214 ft | 257 kts | 106° |
| 2026-05-08 08:40 | 45.24612 | 7.80964 | 8071 ft | 260 kts | 122° |
| 2026-05-08 08:41 | 45.23567 | 7.83082 | 8928 ft | 263 kts | 126° |
| 2026-05-08 08:41 | 45.22495 | 7.85207 | 9767 ft | 267 kts | 126° |
| 2026-05-08 08:41 | 45.21412 | 7.87363 | 10563 ft | 270 kts | 126° |
| 2026-05-08 08:41 | 45.20316 | 7.89547 | 11346 ft | 273 kts | 126° |
| 2026-05-08 08:42 | 45.19223 | 7.91727 | 12107 ft | 276 kts | 126° |
| 2026-05-08 08:42 | 45.18104 | 7.93959 | 12856 ft | 280 kts | 126° |
| 2026-05-08 08:42 | 45.16822 | 7.96039 | 13557 ft | 283 kts | 142° |
| 2026-05-08 08:42 | 45.15090 | 7.97351 | 14243 ft | 285 kts | 165° |
| 2026-05-08 08:43 | 45.13081 | 7.97660 | 14603 ft | 301 kts | 188° |
| 2026-05-08 08:43 | 45.11049 | 7.96786 | 15078 ft | 310 kts | 204° |
| 2026-05-08 08:43 | 45.09063 | 7.95531 | 15708 ft | 315 kts | 211° |
| 2026-05-08 08:43 | 45.07414 | 7.93497 | 16336 ft | 318 kts | 234° |
| 2026-05-08 08:44 | 45.06498 | 7.90664 | 16953 ft | 321 kts | 259° |
| 2026-05-08 08:44 | 45.06511 | 7.87521 | 17566 ft | 323 kts | 284° |
| 2026-05-08 08:44 | 45.07268 | 7.84507 | 18175 ft | 327 kts | 291° |
| 2026-05-08 08:44 | 45.08131 | 7.81514 | 18789 ft | 330 kts | 296° |
| 2026-05-08 08:45 | 45.09345 | 7.78742 | 19381 ft | 333 kts | 309° |
| 2026-05-08 08:45 | 45.11004 | 7.76360 | 19630 ft | 350 kts | 322° |
| 2026-05-08 08:45 | 45.13001 | 7.74327 | 19752 ft | 367 kts | 324° |
| 2026-05-08 08:45 | 45.15133 | 7.72186 | 19899 ft | 384 kts | 324° |
| 2026-05-08 08:46 | 45.17359 | 7.69940 | 20086 ft | 399 kts | 324° |
| 2026-05-08 08:46 | 45.19632 | 7.67636 | 20535 ft | 405 kts | 324° |
| 2026-05-08 08:46 | 45.21935 | 7.65294 | 21041 ft | 409 kts | 324° |
| 2026-05-08 08:46 | 45.24251 | 7.62931 | 21537 ft | 412 kts | 324° |
| 2026-05-08 08:47 | 45.26589 | 7.60546 | 22016 ft | 415 kts | 324° |
| 2026-05-08 08:47 | 45.28947 | 7.58144 | 22476 ft | 419 kts | 324° |
| 2026-05-08 08:47 | 45.31323 | 7.55725 | 22921 ft | 422 kts | 324° |
| 2026-05-08 08:47 | 45.33718 | 7.53283 | 23331 ft | 426 kts | 324° |
| 2026-05-08 08:48 | 45.36139 | 7.50811 | 23731 ft | 430 kts | 324° |
| 2026-05-08 08:48 | 45.38582 | 7.48311 | 24045 ft | 435 kts | 324° |
| 2026-05-08 08:48 | 45.41043 | 7.45785 | 24486 ft | 436 kts | 324° |
| 2026-05-08 08:48 | 45.43507 | 7.43254 | 24948 ft | 437 kts | 324° |
| 2026-05-08 08:49 | 45.45957 | 7.40738 | 25286 ft | 441 kts | 324° |
| 2026-05-08 08:49 | 45.48463 | 7.38164 | 25552 ft | 447 kts | 324° |
| 2026-05-08 08:49 | 45.50999 | 7.35557 | 25800 ft | 451 kts | 324° |
| 2026-05-08 08:49 | 45.53556 | 7.32925 | 25980 ft | 455 kts | 324° |
| 2026-05-08 08:50 | 45.56128 | 7.30275 | 26306 ft | 457 kts | 324° |
| 2026-05-08 08:50 | 45.58712 | 7.27610 | 26526 ft | 460 kts | 324° |
| 2026-05-08 08:50 | 45.61313 | 7.24926 | 26704 ft | 463 kts | 324° |
| 2026-05-08 08:50 | 45.63924 | 7.22232 | 27013 ft | 463 kts | 325° |
| 2026-05-08 08:51 | 45.66694 | 7.19887 | 27442 ft | 462 kts | 334° |
| 2026-05-08 08:51 | 45.69609 | 7.17955 | 27902 ft | 461 kts | 335° |
| 2026-05-08 08:51 | 45.72524 | 7.16040 | 28289 ft | 463 kts | 335° |
| 2026-05-08 08:51 | 45.75464 | 7.14106 | 28453 ft | 468 kts | 335° |
| 2026-05-08 08:52 | 45.78431 | 7.12149 | 28666 ft | 471 kts | 335° |
| 2026-05-08 08:52 | 45.81413 | 7.10177 | 28891 ft | 473 kts | 335° |
| 2026-05-08 08:52 | 45.84406 | 7.08191 | 29153 ft | 474 kts | 335° |
| 2026-05-08 08:52 | 45.87395 | 7.06206 | 29514 ft | 473 kts | 335° |
| 2026-05-08 08:53 | 45.90370 | 7.04230 | 29960 ft | 471 kts | 335° |
| 2026-05-08 08:53 | 45.93348 | 7.02249 | 30155 ft | 473 kts | 335° |
| 2026-05-08 08:53 | 45.96296 | 7.00282 | 30435 ft | 473 kts | 335° |
| 2026-05-08 08:53 | 45.99285 | 6.98288 | 30687 ft | 474 kts | 335° |
| 2026-05-08 08:54 | 46.02269 | 6.96299 | 31131 ft | 470 kts | 335° |
| 2026-05-08 08:54 | 46.05229 | 6.94326 | 31644 ft | 466 kts | 335° |
| 2026-05-08 08:54 | 46.08159 | 6.92375 | 32173 ft | 463 kts | 335° |
| 2026-05-08 08:54 | 46.11082 | 6.90423 | 32541 ft | 463 kts | 335° |
| 2026-05-08 08:55 | 46.14005 | 6.88465 | 32828 ft | 464 kts | 335° |
| 2026-05-08 08:55 | 46.16927 | 6.86502 | 33326 ft | 460 kts | 335° |
| 2026-05-08 08:55 | 46.19818 | 6.84555 | 33820 ft | 458 kts | 335° |
| 2026-05-08 08:55 | 46.22704 | 6.82609 | 34176 ft | 458 kts | 335° |
| 2026-05-08 08:56 | 46.25594 | 6.80659 | 34558 ft | 457 kts | 335° |
| 2026-05-08 08:56 | 46.28477 | 6.78714 | 34963 ft | 456 kts | 335° |
| 2026-05-08 08:56 | 46.31345 | 6.76777 | 35380 ft | 454 kts | 335° |
| 2026-05-08 08:56 | 46.34209 | 6.74841 | 35692 ft | 454 kts | 335° |
| 2026-05-08 08:57 | 46.37077 | 6.72902 | 35931 ft | 455 kts | 335° |
| 2026-05-08 08:57 | 46.39950 | 6.70960 | 36004 ft | 456 kts | 335° |
| 2026-05-08 08:57 | 46.45357 | 6.66248 | 36008 ft | 453 kts | 319° |
| 2026-05-08 08:58 | 46.49800 | 6.59784 | 36009 ft | 452 kts | 313° |
| 2026-05-08 08:58 | 46.54129 | 6.53229 | 36008 ft | 453 kts | 314° |
| 2026-05-08 08:59 | 46.58493 | 6.46624 | 36009 ft | 453 kts | 314° |
| 2026-05-08 08:59 | 46.62864 | 6.39999 | 36009 ft | 454 kts | 313° |
| 2026-05-08 09:00 | 46.67223 | 6.33327 | 36000 ft | 455 kts | 313° |
| 2026-05-08 09:00 | 46.71595 | 6.26632 | 36001 ft | 457 kts | 313° |
| 2026-05-08 09:01 | 46.75980 | 6.19919 | 36009 ft | 457 kts | 313° |
| 2026-05-08 09:01 | 46.80358 | 6.13195 | 36012 ft | 457 kts | 313° |
| 2026-05-08 09:02 | 46.84731 | 6.06459 | 36019 ft | 457 kts | 313° |
| 2026-05-08 09:02 | 46.89070 | 5.99756 | 36023 ft | 456 kts | 313° |
| 2026-05-08 09:03 | 46.93439 | 5.93018 | 36026 ft | 456 kts | 315° |
| 2026-05-08 09:03 | 46.98531 | 5.87555 | 36025 ft | 455 kts | 332° |
| 2026-05-08 09:04 | 47.04144 | 5.83269 | 36029 ft | 455 kts | 332° |
| 2026-05-08 09:04 | 47.09743 | 5.78963 | 36030 ft | 454 kts | 332° |
| 2026-05-08 09:05 | 47.15339 | 5.74641 | 36029 ft | 454 kts | 332° |
| 2026-05-08 09:05 | 47.20928 | 5.70308 | 36028 ft | 453 kts | 332° |
| 2026-05-08 09:06 | 47.26475 | 5.66010 | 36027 ft | 453 kts | 332° |
| 2026-05-08 09:06 | 47.32059 | 5.61674 | 36025 ft | 453 kts | 332° |
| 2026-05-08 09:07 | 47.37637 | 5.57337 | 36025 ft | 453 kts | 332° |
| 2026-05-08 09:07 | 47.43208 | 5.52985 | 36025 ft | 453 kts | 332° |
| 2026-05-08 09:08 | 47.48772 | 5.48625 | 36024 ft | 453 kts | 330° |
| 2026-05-08 09:08 | 47.53685 | 5.42981 | 36021 ft | 451 kts | 312° |
| 2026-05-08 09:09 | 47.57516 | 5.35629 | 36017 ft | 451 kts | 306° |
| 2026-05-08 09:09 | 47.61247 | 5.28120 | 36015 ft | 452 kts | 306° |
| 2026-05-08 09:10 | 47.64977 | 5.20612 | 36014 ft | 452 kts | 306° |
| 2026-05-08 09:10 | 47.68708 | 5.13084 | 36013 ft | 453 kts | 306° |
| 2026-05-08 09:11 | 47.72423 | 5.05537 | 36014 ft | 453 kts | 306° |
| 2026-05-08 09:11 | 47.76119 | 4.98016 | 36015 ft | 453 kts | 306° |
| 2026-05-08 09:12 | 47.79836 | 4.90449 | 36017 ft | 453 kts | 306° |
| 2026-05-08 09:12 | 47.83537 | 4.82864 | 36018 ft | 453 kts | 306° |
| 2026-05-08 09:13 | 47.87238 | 4.75257 | 36020 ft | 453 kts | 306° |
| 2026-05-08 09:13 | 47.90943 | 4.67643 | 36023 ft | 453 kts | 306° |
| 2026-05-08 09:14 | 47.94639 | 4.60034 | 36024 ft | 453 kts | 306° |
| 2026-05-08 09:14 | 47.98322 | 4.52418 | 36024 ft | 453 kts | 306° |
| 2026-05-08 09:15 | 48.02008 | 4.44782 | 36025 ft | 453 kts | 306° |
| 2026-05-08 09:15 | 48.05660 | 4.37186 | 36026 ft | 452 kts | 305° |
| 2026-05-08 09:16 | 48.09323 | 4.29534 | 36026 ft | 452 kts | 305° |
| 2026-05-08 09:16 | 48.12976 | 4.21874 | 36027 ft | 452 kts | 305° |
| 2026-05-08 09:17 | 48.16631 | 4.14205 | 36027 ft | 452 kts | 305° |
| 2026-05-08 09:17 | 48.20288 | 4.06536 | 36027 ft | 452 kts | 305° |
| 2026-05-08 09:18 | 48.23934 | 3.98839 | 36026 ft | 452 kts | 305° |
| 2026-05-08 09:18 | 48.28045 | 3.91722 | 36025 ft | 452 kts | 314° |
| 2026-05-08 09:19 | 48.32371 | 3.84919 | 36025 ft | 452 kts | 313° |
| 2026-05-08 09:19 | 48.36711 | 3.78057 | 36026 ft | 453 kts | 313° |
| 2026-05-08 09:20 | 48.40319 | 3.72347 | 36027 ft | 453 kts | 313° |
| 2026-05-08 09:20 | 48.44652 | 3.65470 | 36027 ft | 453 kts | 313° |
| 2026-05-08 09:21 | 48.48981 | 3.58575 | 36029 ft | 453 kts | 313° |
| 2026-05-08 09:23 | 48.64103 | 3.34370 | 36030 ft | 453 kts | 313° |
| 2026-05-08 09:23 | 48.68415 | 3.27421 | 36029 ft | 453 kts | 313° |
| 2026-05-08 09:24 | 48.72729 | 3.20458 | 36030 ft | 453 kts | 313° |
| 2026-05-08 09:24 | 48.77036 | 3.13475 | 36030 ft | 453 kts | 313° |
| 2026-05-08 09:25 | 48.81342 | 3.06494 | 36031 ft | 453 kts | 313° |
| 2026-05-08 09:25 | 48.86016 | 3.00120 | 36031 ft | 453 kts | 327° |
| 2026-05-08 09:26 | 48.91421 | 2.95315 | 36031 ft | 453 kts | 330° |
| 2026-05-08 09:26 | 48.96890 | 2.90533 | 36032 ft | 453 kts | 330° |
| 2026-05-08 09:27 | 49.02366 | 2.85741 | 36033 ft | 454 kts | 330° |
| 2026-05-08 09:27 | 49.07837 | 2.80936 | 36032 ft | 454 kts | 329° |
| 2026-05-08 09:28 | 49.13308 | 2.76102 | 36031 ft | 454 kts | 329° |
| 2026-05-08 09:28 | 49.18772 | 2.71265 | 36032 ft | 454 kts | 329° |
| 2026-05-08 09:29 | 49.24202 | 2.66456 | 36032 ft | 453 kts | 329° |
| 2026-05-08 09:29 | 49.29659 | 2.61607 | 36032 ft | 453 kts | 329° |
| 2026-05-08 09:30 | 49.35118 | 2.56740 | 36033 ft | 453 kts | 329° |
| 2026-05-08 09:30 | 49.40568 | 2.51882 | 36032 ft | 453 kts | 329° |
| 2026-05-08 09:31 | 49.46019 | 2.47007 | 36030 ft | 453 kts | 329° |
| 2026-05-08 09:31 | 49.51421 | 2.41992 | 36030 ft | 453 kts | 323° |
| 2026-05-08 09:32 | 49.56241 | 2.35759 | 36028 ft | 453 kts | 319° |
| 2026-05-08 09:32 | 49.61012 | 2.29425 | 36028 ft | 453 kts | 319° |
| 2026-05-08 09:33 | 49.65786 | 2.23097 | 36028 ft | 453 kts | 319° |
| 2026-05-08 09:33 | 49.70527 | 2.16779 | 36028 ft | 453 kts | 319° |
| 2026-05-08 09:34 | 49.75283 | 2.10407 | 36028 ft | 453 kts | 319° |
| 2026-05-08 09:34 | 49.80040 | 2.04020 | 36027 ft | 452 kts | 319° |
| 2026-05-08 09:35 | 49.84793 | 1.97626 | 36027 ft | 453 kts | 319° |
| 2026-05-08 09:35 | 49.89548 | 1.91214 | 36027 ft | 452 kts | 319° |
| 2026-05-08 09:36 | 49.94294 | 1.84798 | 36027 ft | 452 kts | 319° |
| 2026-05-08 09:36 | 49.99016 | 1.78408 | 35892 ft | 452 kts | 319° |
| 2026-05-08 09:36 | 50.01386 | 1.75190 | 35640 ft | 452 kts | 319° |
| 2026-05-08 09:37 | 50.03749 | 1.71969 | 35391 ft | 452 kts | 319° |
| 2026-05-08 09:37 | 50.06117 | 1.68736 | 35135 ft | 452 kts | 319° |
| 2026-05-08 09:37 | 50.08481 | 1.65512 | 34891 ft | 452 kts | 319° |
| 2026-05-08 09:37 | 50.10854 | 1.62286 | 34641 ft | 453 kts | 319° |
| 2026-05-08 09:38 | 50.13232 | 1.59055 | 34391 ft | 453 kts | 319° |
| 2026-05-08 09:38 | 50.15610 | 1.55826 | 34142 ft | 454 kts | 319° |
| 2026-05-08 09:38 | 50.17992 | 1.52589 | 33867 ft | 453 kts | 319° |
| 2026-05-08 09:38 | 50.20380 | 1.49341 | 32825 ft | 459 kts | 319° |
| 2026-05-08 09:39 | 50.22803 | 1.46047 | 31757 ft | 464 kts | 319° |
| 2026-05-08 09:39 | 50.25246 | 1.42720 | 30745 ft | 466 kts | 319° |
| 2026-05-08 09:39 | 50.27702 | 1.39373 | 29527 ft | 471 kts | 319° |
| 2026-05-08 09:39 | 50.30175 | 1.35997 | 28299 ft | 474 kts | 319° |
| 2026-05-08 09:40 | 50.32656 | 1.32591 | 27214 ft | 473 kts | 318° |
| 2026-05-08 09:40 | 50.35100 | 1.29222 | 26550 ft | 464 kts | 318° |
| 2026-05-08 09:40 | 50.37478 | 1.25938 | 25751 ft | 459 kts | 318° |
| 2026-05-08 09:40 | 50.39861 | 1.22654 | 24961 ft | 453 kts | 318° |
| 2026-05-08 09:41 | 50.42213 | 1.19412 | 24189 ft | 448 kts | 318° |
| 2026-05-08 09:41 | 50.44543 | 1.16199 | 23430 ft | 443 kts | 318° |
| 2026-05-08 09:41 | 50.46844 | 1.13018 | 22685 ft | 438 kts | 318° |
| 2026-05-08 09:41 | 50.49109 | 1.09874 | 21944 ft | 433 kts | 318° |
| 2026-05-08 09:42 | 50.51348 | 1.06739 | 21223 ft | 428 kts | 316° |
| 2026-05-08 09:42 | 50.53392 | 1.03385 | 20517 ft | 422 kts | 313° |
| 2026-05-08 09:42 | 50.55384 | 1.00034 | 19830 ft | 417 kts | 313° |
| 2026-05-08 09:42 | 50.57357 | 0.96714 | 19187 ft | 413 kts | 313° |
| 2026-05-08 09:43 | 50.59304 | 0.93432 | 18578 ft | 408 kts | 313° |
| 2026-05-08 09:43 | 50.61228 | 0.90179 | 17971 ft | 404 kts | 313° |
| 2026-05-08 09:43 | 50.63135 | 0.86949 | 17374 ft | 401 kts | 313° |
| 2026-05-08 09:43 | 50.65025 | 0.83739 | 16777 ft | 398 kts | 313° |
| 2026-05-08 09:44 | 50.66897 | 0.80555 | 16208 ft | 394 kts | 313° |
| 2026-05-08 09:44 | 50.68713 | 0.77349 | 16000 ft | 389 kts | 310° |
| 2026-05-08 09:44 | 50.70437 | 0.74087 | 15559 ft | 385 kts | 309° |
| 2026-05-08 09:44 | 50.72092 | 0.70809 | 15088 ft | 378 kts | 308° |
| 2026-05-08 09:45 | 50.73685 | 0.67595 | 14556 ft | 361 kts | 308° |
| 2026-05-08 09:45 | 50.75192 | 0.64550 | 14033 ft | 343 kts | 308° |
| 2026-05-08 09:45 | 50.76636 | 0.61652 | 13510 ft | 328 kts | 308° |
| 2026-05-08 09:45 | 50.78030 | 0.58878 | 12986 ft | 316 kts | 308° |
| 2026-05-08 09:46 | 50.79366 | 0.56232 | 12468 ft | 307 kts | 308° |
| 2026-05-08 09:46 | 50.80699 | 0.53607 | 11936 ft | 298 kts | 308° |
| 2026-05-08 09:46 | 50.81984 | 0.51082 | 11411 ft | 291 kts | 308° |
| 2026-05-08 09:46 | 50.83239 | 0.48612 | 10884 ft | 285 kts | 308° |
| 2026-05-08 09:47 | 50.84452 | 0.46219 | 10369 ft | 280 kts | 308° |
| 2026-05-08 09:47 | 50.85660 | 0.43834 | 9838 ft | 276 kts | 308° |
| 2026-05-08 09:47 | 50.86852 | 0.41481 | 9311 ft | 272 kts | 308° |
| 2026-05-08 09:47 | 50.88023 | 0.39162 | 8785 ft | 268 kts | 308° |
| 2026-05-08 09:48 | 50.89181 | 0.36866 | 8258 ft | 265 kts | 308° |
| 2026-05-08 09:48 | 50.90331 | 0.34585 | 7730 ft | 263 kts | 308° |
| 2026-05-08 09:48 | 50.91467 | 0.32328 | 7231 ft | 262 kts | 308° |
| 2026-05-08 09:48 | 50.92583 | 0.30049 | 6998 ft | 258 kts | 309° |
| 2026-05-08 09:49 | 50.93837 | 0.28133 | 7005 ft | 245 kts | 320° |
| 2026-05-08 09:49 | 50.95160 | 0.26443 | 7008 ft | 243 kts | 321° |
| 2026-05-08 09:49 | 50.96489 | 0.24780 | 7013 ft | 243 kts | 321° |
| 2026-05-08 09:49 | 50.97820 | 0.23117 | 7002 ft | 244 kts | 321° |
| 2026-05-08 09:50 | 50.99153 | 0.21452 | 6903 ft | 243 kts | 321° |
| 2026-05-08 09:50 | 51.00479 | 0.19795 | 6802 ft | 242 kts | 321° |
| 2026-05-08 09:50 | 51.01787 | 0.18112 | 6699 ft | 241 kts | 315° |
| 2026-05-08 09:50 | 51.02640 | 0.15897 | 6535 ft | 240 kts | 284° |
| 2026-05-08 09:51 | 51.02851 | 0.13289 | 6337 ft | 239 kts | 273° |
| 2026-05-08 09:51 | 51.02915 | 0.10654 | 6160 ft | 239 kts | 271° |
| 2026-05-08 09:51 | 51.02960 | 0.08020 | 5985 ft | 238 kts | 271° |
| 2026-05-08 09:51 | 51.03003 | 0.05393 | 5809 ft | 238 kts | 271° |
| 2026-05-08 09:52 | 51.03044 | 0.02765 | 5633 ft | 237 kts | 271° |
| 2026-05-08 09:52 | 51.03084 | 0.00152 | 5457 ft | 236 kts | 271° |
| 2026-05-08 09:52 | 51.03124 | -0.02453 | 5282 ft | 236 kts | 271° |
| 2026-05-08 09:52 | 51.03163 | -0.05051 | 5121 ft | 235 kts | 271° |
| 2026-05-08 09:53 | 51.03201 | -0.07644 | 5009 ft | 235 kts | 271° |
| 2026-05-08 09:53 | 51.03239 | -0.10234 | 4902 ft | 234 kts | 271° |
| 2026-05-08 09:53 | 51.03277 | -0.12828 | 4806 ft | 234 kts | 271° |
| 2026-05-08 09:53 | 51.03314 | -0.15417 | 4706 ft | 234 kts | 271° |
| 2026-05-08 09:54 | 51.03351 | -0.17995 | 4605 ft | 233 kts | 271° |
| 2026-05-08 09:54 | 51.03389 | -0.20572 | 4505 ft | 233 kts | 271° |
| 2026-05-08 09:54 | 51.03425 | -0.23142 | 4404 ft | 233 kts | 271° |
| 2026-05-08 09:54 | 51.03461 | -0.25680 | 4306 ft | 233 kts | 271° |
| 2026-05-08 09:55 | 51.03497 | -0.28246 | 4204 ft | 232 kts | 271° |
| 2026-05-08 09:55 | 51.03533 | -0.30806 | 4105 ft | 232 kts | 271° |
| 2026-05-08 09:55 | 51.03568 | -0.33364 | 3996 ft | 231 kts | 271° |
| 2026-05-08 09:55 | 51.03603 | -0.35919 | 3903 ft | 231 kts | 271° |
| 2026-05-08 09:56 | 51.03638 | -0.38470 | 3802 ft | 231 kts | 271° |
| 2026-05-08 09:56 | 51.03677 | -0.41017 | 3700 ft | 230 kts | 273° |
| 2026-05-08 09:56 | 51.04127 | -0.43412 | 3592 ft | 226 kts | 304° |
| 2026-05-08 09:56 | 51.05292 | -0.44972 | 3499 ft | 217 kts | 337° |
| 2026-05-08 09:57 | 51.08069 | -0.46230 | 3309 ft | 199 kts | 346° |
| 2026-05-08 09:57 | 51.09410 | -0.46740 | 3234 ft | 197 kts | 346° |
| 2026-05-08 09:57 | 51.10754 | -0.46735 | 3140 ft | 193 kts | 24° |
| 2026-05-08 09:58 | 51.11649 | -0.45238 | 3126 ft | 192 kts | 72° |
| 2026-05-08 09:58 | 51.11656 | -0.43142 | 2975 ft | 191 kts | 99° |
| 2026-05-08 09:58 | 51.11698 | -0.41054 | 2745 ft | 190 kts | 75° |
| 2026-05-08 09:58 | 51.12027 | -0.39020 | 2503 ft | 189 kts | 77° |
| 2026-05-08 09:59 | 51.12316 | -0.36985 | 2257 ft | 187 kts | 77° |
| 2026-05-08 09:59 | 51.12600 | -0.34959 | 2004 ft | 187 kts | 77° |
| 2026-05-08 09:59 | 51.12880 | -0.32952 | 1763 ft | 184 kts | 77° |
| 2026-05-08 09:59 | 51.13148 | -0.31034 | 1524 ft | 169 kts | 77° |
| 2026-05-08 10:00 | 51.13386 | -0.29327 | 1320 ft | 150 kts | 77° |
| 2026-05-08 10:00 | 51.13605 | -0.27752 | 1116 ft | 142 kts | 77° |
| 2026-05-08 10:00 | 51.13817 | -0.26230 | 938 ft | 140 kts | 77° |
| 2026-05-08 10:00 | 51.14025 | -0.24727 | 751 ft | 138 kts | 77° |
| 2026-05-08 10:01 | 51.14232 | -0.23234 | 570 ft | 138 kts | 77° |
| 2026-05-08 10:01 | 51.14439 | -0.21748 | 391 ft | 137 kts | 77° |
| 2026-05-08 10:01 | 51.14644 | -0.20265 | 236 ft | 137 kts | 77° |
| 2026-05-08 10:01 | 51.14830 | -0.18931 | 211 ft | 104 kts | 77° |
| 2026-05-08 10:02 | 51.14945 | -0.18082 | 212 ft | 57 kts | 78° |
| 2026-05-08 10:02 | 51.15017 | -0.17563 | 215 ft | 43 kts | 77° |
| 2026-05-08 10:02 | 51.15096 | -0.17264 | 213 ft | 16 kts | 56° |
| 2026-05-08 10:02 | 51.15151 | -0.17220 | 208 ft | 5 kts | 344° |
| 2026-05-08 10:03 | 51.15172 | -0.17236 | 208 ft | 1 kts | 330° |
| 2026-05-08 10:03 | 51.15182 | -0.17246 | 206 ft | 3 kts | 330° |
| 2026-05-08 10:03 | 51.15208 | -0.17272 | 210 ft | 6 kts | 326° |
| 2026-05-08 10:03 | 51.15252 | -0.17319 | 208 ft | 9 kts | 328° |
| 2026-05-08 10:04 | 51.15321 | -0.17362 | 211 ft | 12 kts | 356° |
| 2026-05-08 10:04 | 51.15380 | -0.17261 | 212 ft | 15 kts | 71° |
| 2026-05-08 10:04 | 51.15411 | -0.17085 | 206 ft | 18 kts | 77° |
| 2026-05-08 10:04 | 51.15441 | -0.16873 | 204 ft | 21 kts | 78° |
| 2026-05-08 10:05 | 51.15448 | -0.16719 | 212 ft | 8 kts | 69° |
| 2026-05-08 10:05 | 51.15493 | -0.16710 | 204 ft | 7 kts | 344° |
| 2026-05-08 10:05 | 51.15514 | -0.16718 | 213 ft | 1 kts | 347° |
| 2026-05-08 10:05 | 51.15516 | -0.16719 | 213 ft | 0 kts | 347° |